Port Hadlock, Washington
Current Conditions -  °F | °C
As of 6:24 PM on Thursday 20 Nov 2014 (Local Time) from KNUW Reporting Station
Overcast Overcast  
Wind Chill: 53°   Ceiling: 1300
Heat Index: 53°   Visibility: 10mi
Dew Point: 46°   Wind: 9mph
Humidity: 77%   Direction: 130°SE
Pressure: 29.91"   Gusts: NA
Location:  48.03°N, 122.76°W
Report Text: KNUW 210224Z 13008KT 10SM BKN013 BKN024 OVC060 12/08 A2991 RMK AO2 T01170078 $
Loading
Personal Weather Stations






























Interactive Weather Map New forecast layout! Learn more

10-Day Weather Forecast

Advertisements
Track Severe Weather on mobile